Terminal Aerodrome Forecast
Issued by NWS

Home | Current Version | Previous Version | Text Only | Print | Product List | Glossary On
Versions: 1 2 3 4 5 6 7 8 9 10 11 12 13 14 15
000
FTUS45 KSLC 010359 AAB
TAFLGU
TAF AMD
KLGU 010359Z 0104/0124 11020G30KT P6SM FEW080 OVC110
     FM010700 11025G38KT P6SM SCT080 BKN120
     FM011000 13015G20KT P6SM SCT080 BKN120
     FM011400 11025G30KT P6SM SCT080 BKN120=

USA.gov is the U.S. government's official web portal to all federal, state and local government web resources and services.